sensor_id;sensor_type;location;lat;lon;timestamp;P1;durP1;ratioP1;P2;durP2;ratioP2
11548;SDS011;61444;59.472;18.306;2023-09-30T00:00:09;19.10;;;12.47;;
11548;SDS011;61444;59.472;18.306;2023-09-30T00:02:18;22.60;;;11.87;;
11548;SDS011;61444;59.472;18.306;2023-09-30T00:04:25;20.13;;;11.60;;
11548;SDS011;61444;59.472;18.306;2023-09-30T00:06:36;21.80;;;12.70;;
11548;SDS011;61444;59.472;18.306;2023-09-30T00:08:46;20.13;;;12.60;;
11548;SDS011;61444;59.472;18.306;2023-09-30T00:10:55;17.47;;;12.00;;
11548;SDS011;61444;59.472;18.306;2023-09-30T00:13:04;22.07;;;12.67;;
11548;SDS011;61444;59.472;18.306;2023-09-30T00:15:13;19.03;;;12.07;;
11548;SDS011;61444;59.472;18.306;2023-09-30T00:17:22;19.27;;;12.57;;
11548;SDS011;61444;59.472;18.306;2023-09-30T00:19:31;21.57;;;12.67;;
11548;SDS011;61444;59.472;18.306;2023-09-30T00:21:40;19.93;;;12.43;;
11548;SDS011;61444;59.472;18.306;2023-09-30T00:23:51;18.43;;;11.97;;
11548;SDS011;61444;59.472;18.306;2023-09-30T00:25:59;18.67;;;12.10;;
11548;SDS011;61444;59.472;18.306;2023-09-30T00:28:07;22.87;;;12.90;;
11548;SDS011;61444;59.472;18.306;2023-09-30T00:30:15;24.60;;;12.73;;
11548;SDS011;61444;59.472;18.306;2023-09-30T00:32:23;20.03;;;11.60;;
11548;SDS011;61444;59.472;18.306;2023-09-30T00:34:33;16.20;;;12.03;;
11548;SDS011;61444;59.472;18.306;2023-09-30T00:36:42;18.47;;;12.17;;
11548;SDS011;61444;59.472;18.306;2023-09-30T00:38:52;18.93;;;12.67;;
11548;SDS011;61444;59.472;18.306;2023-09-30T00:41:00;17.40;;;12.30;;
11548;SDS011;61444;59.472;18.306;2023-09-30T00:43:17;19.07;;;12.37;;
11548;SDS011;61444;59.472;18.306;2023-09-30T00:45:26;21.33;;;13.37;;
11548;SDS011;61444;59.472;18.306;2023-09-30T00:47:35;21.03;;;12.60;;
11548;SDS011;61444;59.472;18.306;2023-09-30T00:49:45;21.23;;;12.77;;
11548;SDS011;61444;59.472;18.306;2023-09-30T00:51:54;20.80;;;12.83;;
11548;SDS011;61444;59.472;18.306;2023-09-30T00:54:06;21.50;;;12.17;;
11548;SDS011;61444;59.472;18.306;2023-09-30T00:56:15;22.63;;;12.87;;
11548;SDS011;61444;59.472;18.306;2023-09-30T00:58:25;25.70;;;12.27;;
11548;SDS011;61444;59.472;18.306;2023-09-30T01:00:37;19.47;;;12.33;;
11548;SDS011;61444;59.472;18.306;2023-09-30T01:02:46;23.13;;;11.97;;
11548;SDS011;61444;59.472;18.306;2023-09-30T01:04:55;20.50;;;11.53;;
11548;SDS011;61444;59.472;18.306;2023-09-30T01:07:03;17.30;;;12.00;;
11548;SDS011;61444;59.472;18.306;2023-09-30T01:09:13;15.90;;;10.97;;
11548;SDS011;61444;59.472;18.306;2023-09-30T01:11:22;18.57;;;11.63;;
11548;SDS011;61444;59.472;18.306;2023-09-30T01:13:32;20.60;;;11.10;;
11548;SDS011;61444;59.472;18.306;2023-09-30T01:15:41;21.63;;;12.10;;
11548;SDS011;61444;59.472;18.306;2023-09-30T01:17:49;20.33;;;11.40;;
11548;SDS011;61444;59.472;18.306;2023-09-30T01:19:58;17.77;;;10.50;;
11548;SDS011;61444;59.472;18.306;2023-09-30T01:22:09;19.10;;;9.47;;
11548;SDS011;61444;59.472;18.306;2023-09-30T01:24:18;17.67;;;9.27;;
11548;SDS011;61444;59.472;18.306;2023-09-30T01:26:27;15.43;;;9.43;;
11548;SDS011;61444;59.472;18.306;2023-09-30T01:28:36;11.93;;;7.40;;
11548;SDS011;61444;59.472;18.306;2023-09-30T01:30:44;13.30;;;8.00;;
11548;SDS011;61444;59.472;18.306;2023-09-30T01:32:54;12.87;;;8.20;;
11548;SDS011;61444;59.472;18.306;2023-09-30T01:35:02;13.23;;;7.50;;
11548;SDS011;61444;59.472;18.306;2023-09-30T01:37:13;10.07;;;6.87;;
11548;SDS011;61444;59.472;18.306;2023-09-30T01:39:22;10.70;;;6.33;;
11548;SDS011;61444;59.472;18.306;2023-09-30T01:41:31;11.30;;;6.80;;
11548;SDS011;61444;59.472;18.306;2023-09-30T01:43:40;12.17;;;6.73;;
11548;SDS011;61444;59.472;18.306;2023-09-30T01:45:48;7.03;;;5.07;;
11548;SDS011;61444;59.472;18.306;2023-09-30T01:47:57;7.90;;;5.10;;
11548;SDS011;61444;59.472;18.306;2023-09-30T01:50:06;4.60;;;3.60;;
11548;SDS011;61444;59.472;18.306;2023-09-30T01:52:17;3.70;;;3.23;;
11548;SDS011;61444;59.472;18.306;2023-09-30T01:54:26;3.60;;;3.10;;
11548;SDS011;61444;59.472;18.306;2023-09-30T01:56:35;4.60;;;3.20;;
11548;SDS011;61444;59.472;18.306;2023-09-30T01:58:44;4.63;;;3.20;;
11548;SDS011;61444;59.472;18.306;2023-09-30T02:00:53;5.60;;;3.57;;
11548;SDS011;61444;59.472;18.306;2023-09-30T02:03:01;3.73;;;3.37;;
11548;SDS011;61444;59.472;18.306;2023-09-30T02:05:11;2.47;;;2.27;;
11548;SDS011;61444;59.472;18.306;2023-09-30T02:07:20;3.93;;;2.23;;
11548;SDS011;61444;59.472;18.306;2023-09-30T02:09:28;3.20;;;2.17;;
11548;SDS011;61444;59.472;18.306;2023-09-30T02:11:37;4.10;;;2.50;;
11548;SDS011;61444;59.472;18.306;2023-09-30T02:13:48;3.47;;;2.07;;
11548;SDS011;61444;59.472;18.306;2023-09-30T02:15:56;4.10;;;2.23;;
11548;SDS011;61444;59.472;18.306;2023-09-30T02:18:06;3.10;;;2.30;;
11548;SDS011;61444;59.472;18.306;2023-09-30T02:20:16;2.63;;;2.30;;
11548;SDS011;61444;59.472;18.306;2023-09-30T02:22:27;2.93;;;2.17;;
11548;SDS011;61444;59.472;18.306;2023-09-30T02:24:36;3.77;;;2.40;;
11548;SDS011;61444;59.472;18.306;2023-09-30T02:26:46;2.40;;;2.20;;
11548;SDS011;61444;59.472;18.306;2023-09-30T02:28:57;4.07;;;2.10;;
11548;SDS011;61444;59.472;18.306;2023-09-30T02:31:06;3.00;;;2.17;;
11548;SDS011;61444;59.472;18.306;2023-09-30T02:33:15;1.80;;;1.70;;
11548;SDS011;61444;59.472;18.306;2023-09-30T02:35:23;3.50;;;2.20;;
11548;SDS011;61444;59.472;18.306;2023-09-30T02:37:34;3.27;;;2.00;;
11548;SDS011;61444;59.472;18.306;2023-09-30T02:39:43;5.57;;;2.00;;
11548;SDS011;61444;59.472;18.306;2023-09-30T02:41:52;3.23;;;1.93;;
11548;SDS011;61444;59.472;18.306;2023-09-30T02:44:01;3.17;;;2.03;;
11548;SDS011;61444;59.472;18.306;2023-09-30T02:46:09;2.80;;;2.20;;
11548;SDS011;61444;59.472;18.306;2023-09-30T02:48:19;3.17;;;2.20;;
11548;SDS011;61444;59.472;18.306;2023-09-30T02:50:28;2.40;;;2.20;;
11548;SDS011;61444;59.472;18.306;2023-09-30T02:52:38;4.33;;;2.30;;
11548;SDS011;61444;59.472;18.306;2023-09-30T02:54:48;2.50;;;2.23;;
11548;SDS011;61444;59.472;18.306;2023-09-30T02:56:56;4.67;;;2.67;;
11548;SDS011;61444;59.472;18.306;2023-09-30T02:59:05;5.27;;;2.57;;
11548;SDS011;61444;59.472;18.306;2023-09-30T03:01:14;6.03;;;2.87;;
11548;SDS011;61444;59.472;18.306;2023-09-30T03:03:24;4.97;;;2.43;;
11548;SDS011;61444;59.472;18.306;2023-09-30T03:05:34;4.70;;;2.73;;
11548;SDS011;61444;59.472;18.306;2023-09-30T03:07:45;4.27;;;2.67;;
11548;SDS011;61444;59.472;18.306;2023-09-30T03:09:52;4.37;;;2.63;;
11548;SDS011;61444;59.472;18.306;2023-09-30T03:12:02;6.13;;;2.63;;
11548;SDS011;61444;59.472;18.306;2023-09-30T03:14:11;2.70;;;2.33;;
11548;SDS011;61444;59.472;18.306;2023-09-30T03:16:19;3.13;;;2.10;;
11548;SDS011;61444;59.472;18.306;2023-09-30T03:18:28;8.03;;;2.80;;
11548;SDS011;61444;59.472;18.306;2023-09-30T03:20:39;6.87;;;2.70;;
11548;SDS011;61444;59.472;18.306;2023-09-30T03:22:51;5.93;;;2.77;;
11548;SDS011;61444;59.472;18.306;2023-09-30T03:25:00;5.60;;;2.60;;
11548;SDS011;61444;59.472;18.306;2023-09-30T03:27:10;3.83;;;2.40;;
11548;SDS011;61444;59.472;18.306;2023-09-30T03:29:19;8.77;;;2.77;;
11548;SDS011;61444;59.472;18.306;2023-09-30T03:31:28;6.77;;;2.80;;
11548;SDS011;61444;59.472;18.306;2023-09-30T03:33:37;7.37;;;2.63;;
11548;SDS011;61444;59.472;18.306;2023-09-30T03:35:45;6.37;;;2.83;;
11548;SDS011;61444;59.472;18.306;2023-09-30T03:37:54;3.73;;;2.47;;
11548;SDS011;61444;59.472;18.306;2023-09-30T03:40:05;7.10;;;3.03;;
11548;SDS011;61444;59.472;18.306;2023-09-30T03:42:21;6.70;;;2.77;;
11548;SDS011;61444;59.472;18.306;2023-09-30T03:44:29;12.13;;;3.90;;
11548;SDS011;61444;59.472;18.306;2023-09-30T03:46:38;6.67;;;3.10;;
11548;SDS011;61444;59.472;18.306;2023-09-30T03:48:47;8.80;;;3.33;;
11548;SDS011;61444;59.472;18.306;2023-09-30T03:50:55;5.67;;;2.87;;
11548;SDS011;61444;59.472;18.306;2023-09-30T03:53:05;11.80;;;3.67;;
11548;SDS011;61444;59.472;18.306;2023-09-30T03:55:15;6.77;;;2.87;;
11548;SDS011;61444;59.472;18.306;2023-09-30T03:57:27;8.83;;;3.30;;
11548;SDS011;61444;59.472;18.306;2023-09-30T03:59:36;6.43;;;3.13;;
11548;SDS011;61444;59.472;18.306;2023-09-30T04:01:44;6.87;;;3.30;;
11548;SDS011;61444;59.472;18.306;2023-09-30T04:03:53;9.10;;;2.90;;
11548;SDS011;61444;59.472;18.306;2023-09-30T04:06:03;4.90;;;3.13;;
11548;SDS011;61444;59.472;18.306;2023-09-30T04:08:14;8.07;;;3.80;;
11548;SDS011;61444;59.472;18.306;2023-09-30T04:10:24;5.93;;;3.07;;
11548;SDS011;61444;59.472;18.306;2023-09-30T04:12:33;8.30;;;3.13;;
11548;SDS011;61444;59.472;18.306;2023-09-30T04:14:41;5.60;;;3.03;;
11548;SDS011;61444;59.472;18.306;2023-09-30T04:16:50;8.47;;;3.40;;
11548;SDS011;61444;59.472;18.306;2023-09-30T04:19:00;7.50;;;3.00;;
11548;SDS011;61444;59.472;18.306;2023-09-30T04:21:09;6.47;;;3.67;;
11548;SDS011;61444;59.472;18.306;2023-09-30T04:23:20;8.70;;;3.47;;
11548;SDS011;61444;59.472;18.306;2023-09-30T04:25:28;9.40;;;3.40;;
11548;SDS011;61444;59.472;18.306;2023-09-30T04:27:37;9.43;;;3.20;;
11548;SDS011;61444;59.472;18.306;2023-09-30T04:29:45;7.17;;;3.13;;
11548;SDS011;61444;59.472;18.306;2023-09-30T04:31:56;10.03;;;3.20;;
11548;SDS011;61444;59.472;18.306;2023-09-30T04:34:05;6.53;;;3.20;;
11548;SDS011;61444;59.472;18.306;2023-09-30T04:36:13;13.17;;;3.77;;
11548;SDS011;61444;59.472;18.306;2023-09-30T04:38:24;5.93;;;3.63;;
11548;SDS011;61444;59.472;18.306;2023-09-30T04:40:32;7.07;;;3.13;;
11548;SDS011;61444;59.472;18.306;2023-09-30T04:42:44;9.33;;;3.13;;
11548;SDS011;61444;59.472;18.306;2023-09-30T04:44:53;8.47;;;3.40;;
11548;SDS011;61444;59.472;18.306;2023-09-30T04:47:02;10.57;;;3.67;;
11548;SDS011;61444;59.472;18.306;2023-09-30T04:49:11;7.43;;;3.93;;
11548;SDS011;61444;59.472;18.306;2023-09-30T04:51:21;8.03;;;3.13;;
11548;SDS011;61444;59.472;18.306;2023-09-30T04:53:33;9.10;;;3.43;;
11548;SDS011;61444;59.472;18.306;2023-09-30T04:55:42;7.93;;;3.60;;
11548;SDS011;61444;59.472;18.306;2023-09-30T04:57:51;9.50;;;3.43;;
11548;SDS011;61444;59.472;18.306;2023-09-30T04:59:59;8.53;;;3.67;;
11548;SDS011;61444;59.472;18.306;2023-09-30T05:02:17;10.73;;;3.77;;
11548;SDS011;61444;59.472;18.306;2023-09-30T05:04:25;9.57;;;3.77;;
11548;SDS011;61444;59.472;18.306;2023-09-30T05:06:36;12.03;;;3.50;;
11548;SDS011;61444;59.472;18.306;2023-09-30T05:08:46;10.97;;;3.77;;
11548;SDS011;61444;59.472;18.306;2023-09-30T05:10:56;10.03;;;3.77;;
11548;SDS011;61444;59.472;18.306;2023-09-30T05:13:05;8.63;;;3.77;;
11548;SDS011;61444;59.472;18.306;2023-09-30T05:15:14;7.83;;;3.40;;
11548;SDS011;61444;59.472;18.306;2023-09-30T05:17:24;12.93;;;4.07;;
11548;SDS011;61444;59.472;18.306;2023-09-30T05:19:32;11.90;;;3.73;;
11548;SDS011;61444;59.472;18.306;2023-09-30T05:21:40;9.63;;;3.70;;
11548;SDS011;61444;59.472;18.306;2023-09-30T05:23:52;10.33;;;3.40;;
11548;SDS011;61444;59.472;18.306;2023-09-30T05:26:01;9.90;;;3.30;;
11548;SDS011;61444;59.472;18.306;2023-09-30T05:28:10;8.27;;;3.93;;
11548;SDS011;61444;59.472;18.306;2023-09-30T05:30:20;10.40;;;4.03;;
11548;SDS011;61444;59.472;18.306;2023-09-30T05:32:28;12.27;;;3.77;;
11548;SDS011;61444;59.472;18.306;2023-09-30T05:34:37;7.57;;;3.17;;
11548;SDS011;61444;59.472;18.306;2023-09-30T05:36:46;9.23;;;3.60;;
11548;SDS011;61444;59.472;18.306;2023-09-30T05:38:59;6.63;;;3.20;;
11548;SDS011;61444;59.472;18.306;2023-09-30T05:41:09;9.13;;;3.27;;
11548;SDS011;61444;59.472;18.306;2023-09-30T05:43:18;13.60;;;4.03;;
11548;SDS011;61444;59.472;18.306;2023-09-30T05:45:26;7.33;;;3.17;;
11548;SDS011;61444;59.472;18.306;2023-09-30T05:47:36;7.70;;;3.53;;
11548;SDS011;61444;59.472;18.306;2023-09-30T05:49:44;14.87;;;3.80;;
11548;SDS011;61444;59.472;18.306;2023-09-30T05:51:53;9.43;;;3.60;;
11548;SDS011;61444;59.472;18.306;2023-09-30T05:54:04;8.00;;;3.23;;
11548;SDS011;61444;59.472;18.306;2023-09-30T05:56:14;12.33;;;3.87;;
11548;SDS011;61444;59.472;18.306;2023-09-30T05:58:21;10.30;;;3.80;;
11548;SDS011;61444;59.472;18.306;2023-09-30T06:00:30;13.03;;;3.27;;
11548;SDS011;61444;59.472;18.306;2023-09-30T06:02:42;11.07;;;3.80;;
11548;SDS011;61444;59.472;18.306;2023-09-30T06:04:53;13.03;;;3.77;;
11548;SDS011;61444;59.472;18.306;2023-09-30T06:07:03;10.17;;;3.40;;
11548;SDS011;61444;59.472;18.306;2023-09-30T06:09:14;9.33;;;3.27;;
11548;SDS011;61444;59.472;18.306;2023-09-30T06:11:23;10.93;;;3.93;;
11548;SDS011;61444;59.472;18.306;2023-09-30T06:13:35;10.20;;;3.37;;
11548;SDS011;61444;59.472;18.306;2023-09-30T06:15:43;10.03;;;3.13;;
11548;SDS011;61444;59.472;18.306;2023-09-30T06:17:53;11.50;;;3.70;;
11548;SDS011;61444;59.472;18.306;2023-09-30T06:20:04;11.90;;;3.27;;
11548;SDS011;61444;59.472;18.306;2023-09-30T06:22:15;12.03;;;3.13;;
11548;SDS011;61444;59.472;18.306;2023-09-30T06:24:25;12.83;;;3.00;;
11548;SDS011;61444;59.472;18.306;2023-09-30T06:26:34;9.47;;;2.97;;
11548;SDS011;61444;59.472;18.306;2023-09-30T06:28:42;12.43;;;3.13;;
11548;SDS011;61444;59.472;18.306;2023-09-30T06:30:51;12.37;;;3.10;;
11548;SDS011;61444;59.472;18.306;2023-09-30T06:33:00;13.57;;;3.17;;
11548;SDS011;61444;59.472;18.306;2023-09-30T06:35:12;10.27;;;3.43;;
11548;SDS011;61444;59.472;18.306;2023-09-30T06:37:21;16.03;;;3.63;;
11548;SDS011;61444;59.472;18.306;2023-09-30T06:39:31;8.20;;;2.83;;
11548;SDS011;61444;59.472;18.306;2023-09-30T06:41:40;10.63;;;3.20;;
11548;SDS011;61444;59.472;18.306;2023-09-30T06:43:50;9.20;;;3.13;;
11548;SDS011;61444;59.472;18.306;2023-09-30T06:45:58;11.63;;;3.07;;
11548;SDS011;61444;59.472;18.306;2023-09-30T06:48:08;12.47;;;3.43;;
11548;SDS011;61444;59.472;18.306;2023-09-30T06:50:19;11.80;;;2.70;;
11548;SDS011;61444;59.472;18.306;2023-09-30T06:52:28;6.70;;;2.50;;
11548;SDS011;61444;59.472;18.306;2023-09-30T06:54:39;7.97;;;3.10;;
11548;SDS011;61444;59.472;18.306;2023-09-30T06:56:48;10.73;;;2.97;;
11548;SDS011;61444;59.472;18.306;2023-09-30T06:58:56;11.20;;;2.90;;
11548;SDS011;61444;59.472;18.306;2023-09-30T07:01:06;11.53;;;2.70;;
11548;SDS011;61444;59.472;18.306;2023-09-30T07:03:14;11.00;;;2.87;;
11548;SDS011;61444;59.472;18.306;2023-09-30T07:05:22;10.20;;;3.17;;
11548;SDS011;61444;59.472;18.306;2023-09-30T07:07:31;7.37;;;2.70;;
11548;SDS011;61444;59.472;18.306;2023-09-30T07:09:41;11.43;;;2.93;;
11548;SDS011;61444;59.472;18.306;2023-09-30T07:11:51;8.73;;;2.70;;
11548;SDS011;61444;59.472;18.306;2023-09-30T07:14:00;8.27;;;2.40;;
11548;SDS011;61444;59.472;18.306;2023-09-30T07:16:09;7.37;;;2.80;;
11548;SDS011;61444;59.472;18.306;2023-09-30T07:18:18;11.50;;;2.70;;
11548;SDS011;61444;59.472;18.306;2023-09-30T07:20:26;9.67;;;3.13;;
11548;SDS011;61444;59.472;18.306;2023-09-30T07:22:39;5.73;;;2.70;;
11548;SDS011;61444;59.472;18.306;2023-09-30T07:25:10;7.93;;;2.47;;
11548;SDS011;61444;59.472;18.306;2023-09-30T07:27:21;9.97;;;2.90;;
11548;SDS011;61444;59.472;18.306;2023-09-30T07:29:34;11.13;;;3.10;;
11548;SDS011;61444;59.472;18.306;2023-09-30T07:31:43;10.60;;;3.13;;
11548;SDS011;61444;59.472;18.306;2023-09-30T07:33:51;9.60;;;2.77;;
11548;SDS011;61444;59.472;18.306;2023-09-30T07:36:00;10.07;;;2.47;;
11548;SDS011;61444;59.472;18.306;2023-09-30T07:38:09;8.37;;;2.90;;
11548;SDS011;61444;59.472;18.306;2023-09-30T07:40:20;9.13;;;3.00;;
11548;SDS011;61444;59.472;18.306;2023-09-30T07:42:29;8.37;;;3.13;;
11548;SDS011;61444;59.472;18.306;2023-09-30T07:44:40;9.47;;;2.83;;
11548;SDS011;61444;59.472;18.306;2023-09-30T07:46:49;7.90;;;2.90;;
11548;SDS011;61444;59.472;18.306;2023-09-30T07:48:58;10.07;;;3.30;;
11548;SDS011;61444;59.472;18.306;2023-09-30T07:51:07;11.30;;;3.07;;
11548;SDS011;61444;59.472;18.306;2023-09-30T07:53:19;11.33;;;2.97;;
11548;SDS011;61444;59.472;18.306;2023-09-30T07:55:30;12.20;;;3.00;;
11548;SDS011;61444;59.472;18.306;2023-09-30T07:57:40;7.27;;;2.53;;
11548;SDS011;61444;59.472;18.306;2023-09-30T07:59:50;12.93;;;2.90;;
11548;SDS011;61444;59.472;18.306;2023-09-30T08:01:58;9.97;;;3.20;;
11548;SDS011;61444;59.472;18.306;2023-09-30T08:04:08;10.00;;;2.93;;
11548;SDS011;61444;59.472;18.306;2023-09-30T08:06:19;14.07;;;2.70;;
11548;SDS011;61444;59.472;18.306;2023-09-30T08:08:27;8.37;;;2.93;;
11548;SDS011;61444;59.472;18.306;2023-09-30T08:10:38;7.63;;;3.13;;
11548;SDS011;61444;59.472;18.306;2023-09-30T08:12:47;11.93;;;3.20;;
11548;SDS011;61444;59.472;18.306;2023-09-30T08:14:56;10.30;;;2.40;;
11548;SDS011;61444;59.472;18.306;2023-09-30T08:17:05;8.93;;;3.00;;
11548;SDS011;61444;59.472;18.306;2023-09-30T08:19:14;10.37;;;3.07;;
11548;SDS011;61444;59.472;18.306;2023-09-30T08:21:23;10.50;;;3.03;;
11548;SDS011;61444;59.472;18.306;2023-09-30T08:23:31;13.60;;;3.10;;
11548;SDS011;61444;59.472;18.306;2023-09-30T08:25:42;8.37;;;2.80;;
11548;SDS011;61444;59.472;18.306;2023-09-30T08:27:51;10.30;;;2.77;;
11548;SDS011;61444;59.472;18.306;2023-09-30T08:30:01;11.10;;;2.70;;
11548;SDS011;61444;59.472;18.306;2023-09-30T08:32:12;7.77;;;2.60;;
11548;SDS011;61444;59.472;18.306;2023-09-30T08:34:21;13.57;;;3.20;;
11548;SDS011;61444;59.472;18.306;2023-09-30T08:36:30;14.20;;;3.23;;
11548;SDS011;61444;59.472;18.306;2023-09-30T08:38:40;11.27;;;2.97;;
11548;SDS011;61444;59.472;18.306;2023-09-30T08:40:52;13.77;;;3.57;;
11548;SDS011;61444;59.472;18.306;2023-09-30T08:43:01;9.80;;;2.90;;
11548;SDS011;61444;59.472;18.306;2023-09-30T08:45:13;9.17;;;3.27;;
11548;SDS011;61444;59.472;18.306;2023-09-30T08:47:24;9.67;;;2.73;;
11548;SDS011;61444;59.472;18.306;2023-09-30T08:49:34;12.23;;;3.63;;
11548;SDS011;61444;59.472;18.306;2023-09-30T08:51:46;10.50;;;3.03;;
11548;SDS011;61444;59.472;18.306;2023-09-30T08:53:59;9.93;;;3.30;;
11548;SDS011;61444;59.472;18.306;2023-09-30T08:56:12;10.93;;;2.73;;
11548;SDS011;61444;59.472;18.306;2023-09-30T08:58:23;6.97;;;2.63;;
11548;SDS011;61444;59.472;18.306;2023-09-30T09:00:33;5.80;;;2.53;;
11548;SDS011;61444;59.472;18.306;2023-09-30T09:02:42;12.83;;;2.73;;
11548;SDS011;61444;59.472;18.306;2023-09-30T09:04:51;10.73;;;2.50;;
11548;SDS011;61444;59.472;18.306;2023-09-30T09:07:00;10.27;;;2.80;;
11548;SDS011;61444;59.472;18.306;2023-09-30T09:09:12;11.27;;;3.27;;
11548;SDS011;61444;59.472;18.306;2023-09-30T09:11:24;8.73;;;2.50;;
11548;SDS011;61444;59.472;18.306;2023-09-30T09:13:45;8.70;;;2.30;;
11548;SDS011;61444;59.472;18.306;2023-09-30T09:16:05;8.80;;;2.30;;
11548;SDS011;61444;59.472;18.306;2023-09-30T09:18:19;7.50;;;2.60;;
11548;SDS011;61444;59.472;18.306;2023-09-30T09:20:39;8.53;;;2.60;;
11548;SDS011;61444;59.472;18.306;2023-09-30T09:22:48;10.40;;;2.60;;
11548;SDS011;61444;59.472;18.306;2023-09-30T09:25:00;12.77;;;2.80;;
11548;SDS011;61444;59.472;18.306;2023-09-30T09:27:11;10.17;;;2.77;;
11548;SDS011;61444;59.472;18.306;2023-09-30T09:29:25;8.97;;;2.40;;
11548;SDS011;61444;59.472;18.306;2023-09-30T09:31:34;9.83;;;2.70;;
11548;SDS011;61444;59.472;18.306;2023-09-30T09:33:43;9.93;;;2.50;;
11548;SDS011;61444;59.472;18.306;2023-09-30T09:35:51;8.03;;;3.17;;
11548;SDS011;61444;59.472;18.306;2023-09-30T09:38:00;9.97;;;2.40;;
11548;SDS011;61444;59.472;18.306;2023-09-30T09:40:11;14.03;;;2.83;;
11548;SDS011;61444;59.472;18.306;2023-09-30T09:42:27;13.50;;;3.70;;
11548;SDS011;61444;59.472;18.306;2023-09-30T09:44:38;9.50;;;2.90;;
11548;SDS011;61444;59.472;18.306;2023-09-30T09:46:48;7.93;;;3.20;;
11548;SDS011;61444;59.472;18.306;2023-09-30T09:48:58;9.90;;;3.10;;
11548;SDS011;61444;59.472;18.306;2023-09-30T09:51:06;9.87;;;2.70;;
11548;SDS011;61444;59.472;18.306;2023-09-30T09:53:19;12.87;;;2.87;;
11548;SDS011;61444;59.472;18.306;2023-09-30T09:55:29;7.57;;;2.80;;
11548;SDS011;61444;59.472;18.306;2023-09-30T09:57:40;7.00;;;2.60;;
11548;SDS011;61444;59.472;18.306;2023-09-30T09:59:50;10.60;;;3.13;;
11548;SDS011;61444;59.472;18.306;2023-09-30T10:01:59;8.93;;;2.63;;
11548;SDS011;61444;59.472;18.306;2023-09-30T10:04:10;11.67;;;2.70;;
11548;SDS011;61444;59.472;18.306;2023-09-30T10:06:18;11.30;;;3.10;;
11548;SDS011;61444;59.472;18.306;2023-09-30T10:08:30;9.60;;;3.00;;
11548;SDS011;61444;59.472;18.306;2023-09-30T10:10:41;7.70;;;2.73;;
11548;SDS011;61444;59.472;18.306;2023-09-30T10:12:53;8.53;;;3.27;;
11548;SDS011;61444;59.472;18.306;2023-09-30T10:15:16;9.60;;;2.87;;
11548;SDS011;61444;59.472;18.306;2023-09-30T10:17:56;7.73;;;2.87;;
11548;SDS011;61444;59.472;18.306;2023-09-30T10:20:06;6.63;;;2.70;;
11548;SDS011;61444;59.472;18.306;2023-09-30T10:22:20;8.90;;;3.10;;
11548;SDS011;61444;59.472;18.306;2023-09-30T10:24:32;7.67;;;3.07;;
11548;SDS011;61444;59.472;18.306;2023-09-30T10:26:40;9.13;;;2.90;;
11548;SDS011;61444;59.472;18.306;2023-09-30T10:28:50;12.47;;;3.33;;
11548;SDS011;61444;59.472;18.306;2023-09-30T10:31:12;8.87;;;2.70;;
11548;SDS011;61444;59.472;18.306;2023-09-30T10:33:23;9.93;;;2.87;;
11548;SDS011;61444;59.472;18.306;2023-09-30T10:40:28;5.77;;;1.90;;
11548;SDS011;61444;59.472;18.306;2023-09-30T10:42:44;8.07;;;2.43;;
11548;SDS011;61444;59.472;18.306;2023-09-30T10:44:59;8.17;;;2.37;;
11548;SDS011;61444;59.472;18.306;2023-09-30T10:49:45;8.30;;;2.53;;
11548;SDS011;61444;59.472;18.306;2023-09-30T10:51:54;8.90;;;2.60;;
11548;SDS011;61444;59.472;18.306;2023-09-30T10:54:03;11.57;;;2.83;;
11548;SDS011;61444;59.472;18.306;2023-09-30T10:56:13;7.10;;;2.37;;
11548;SDS011;61444;59.472;18.306;2023-09-30T10:58:29;7.63;;;2.27;;
11548;SDS011;61444;59.472;18.306;2023-09-30T11:00:55;8.20;;;2.20;;
11548;SDS011;61444;59.472;18.306;2023-09-30T11:03:04;7.60;;;2.03;;
11548;SDS011;61444;59.472;18.306;2023-09-30T11:05:13;7.20;;;1.90;;
11548;SDS011;61444;59.472;18.306;2023-09-30T11:07:22;6.90;;;2.37;;
11548;SDS011;61444;59.472;18.306;2023-09-30T11:09:33;5.53;;;2.20;;
11548;SDS011;61444;59.472;18.306;2023-09-30T11:11:44;8.60;;;2.70;;
11548;SDS011;61444;59.472;18.306;2023-09-30T11:13:55;11.10;;;2.43;;
11548;SDS011;61444;59.472;18.306;2023-09-30T11:16:04;8.37;;;2.70;;
11548;SDS011;61444;59.472;18.306;2023-09-30T11:18:14;8.27;;;1.80;;
11548;SDS011;61444;59.472;18.306;2023-09-30T11:20:23;9.90;;;2.53;;
11548;SDS011;61444;59.472;18.306;2023-09-30T11:22:32;7.53;;;1.97;;
11548;SDS011;61444;59.472;18.306;2023-09-30T11:24:44;12.10;;;2.57;;
11548;SDS011;61444;59.472;18.306;2023-09-30T11:26:53;6.73;;;2.07;;
11548;SDS011;61444;59.472;18.306;2023-09-30T11:29:07;6.13;;;2.30;;
11548;SDS011;61444;59.472;18.306;2023-09-30T11:31:20;6.43;;;2.63;;
11548;SDS011;61444;59.472;18.306;2023-09-30T11:33:29;8.50;;;2.40;;
11548;SDS011;61444;59.472;18.306;2023-09-30T11:35:38;5.90;;;2.27;;
11548;SDS011;61444;59.472;18.306;2023-09-30T11:37:47;7.37;;;2.50;;
11548;SDS011;61444;59.472;18.306;2023-09-30T11:40:07;7.00;;;2.43;;
11548;SDS011;61444;59.472;18.306;2023-09-30T11:42:17;6.87;;;2.37;;
11548;SDS011;61444;59.472;18.306;2023-09-30T11:44:26;6.00;;;1.87;;
11548;SDS011;61444;59.472;18.306;2023-09-30T11:46:50;4.67;;;1.90;;
11548;SDS011;61444;59.472;18.306;2023-09-30T11:49:01;4.13;;;1.73;;
11548;SDS011;61444;59.472;18.306;2023-09-30T11:51:10;3.83;;;1.83;;
11548;SDS011;61444;59.472;18.306;2023-09-30T11:53:19;5.13;;;2.00;;
11548;SDS011;61444;59.472;18.306;2023-09-30T11:55:28;7.40;;;1.77;;
11548;SDS011;61444;59.472;18.306;2023-09-30T11:57:37;6.43;;;2.00;;
11548;SDS011;61444;59.472;18.306;2023-09-30T11:59:46;3.93;;;1.77;;
11548;SDS011;61444;59.472;18.306;2023-09-30T12:01:57;3.53;;;1.37;;
11548;SDS011;61444;59.472;18.306;2023-09-30T12:04:09;5.83;;;1.90;;
11548;SDS011;61444;59.472;18.306;2023-09-30T12:06:19;4.57;;;1.93;;
11548;SDS011;61444;59.472;18.306;2023-09-30T12:08:28;6.07;;;1.63;;
11548;SDS011;61444;59.472;18.306;2023-09-30T12:10:37;3.70;;;1.80;;
11548;SDS011;61444;59.472;18.306;2023-09-30T12:12:47;6.37;;;1.87;;
11548;SDS011;61444;59.472;18.306;2023-09-30T12:14:55;8.37;;;2.10;;
11548;SDS011;61444;59.472;18.306;2023-09-30T12:17:06;4.20;;;1.73;;
11548;SDS011;61444;59.472;18.306;2023-09-30T12:19:19;6.00;;;1.67;;
11548;SDS011;61444;59.472;18.306;2023-09-30T12:21:28;6.97;;;2.20;;
11548;SDS011;61444;59.472;18.306;2023-09-30T12:23:37;6.13;;;1.80;;
11548;SDS011;61444;59.472;18.306;2023-09-30T12:25:45;6.47;;;1.90;;
11548;SDS011;61444;59.472;18.306;2023-09-30T12:28:17;5.60;;;1.70;;
11548;SDS011;61444;59.472;18.306;2023-09-30T12:30:25;6.70;;;1.93;;
11548;SDS011;61444;59.472;18.306;2023-09-30T12:32:37;7.20;;;2.17;;
11548;SDS011;61444;59.472;18.306;2023-09-30T12:34:46;3.50;;;1.67;;
11548;SDS011;61444;59.472;18.306;2023-09-30T12:36:54;3.80;;;1.90;;
11548;SDS011;61444;59.472;18.306;2023-09-30T12:39:04;5.40;;;1.53;;
11548;SDS011;61444;59.472;18.306;2023-09-30T12:41:17;5.13;;;1.67;;
11548;SDS011;61444;59.472;18.306;2023-09-30T12:43:27;4.07;;;1.70;;
11548;SDS011;61444;59.472;18.306;2023-09-30T12:45:36;4.20;;;1.53;;
11548;SDS011;61444;59.472;18.306;2023-09-30T12:47:48;5.40;;;1.83;;
11548;SDS011;61444;59.472;18.306;2023-09-30T12:49:59;5.00;;;1.77;;
11548;SDS011;61444;59.472;18.306;2023-09-30T12:52:08;6.57;;;1.43;;
11548;SDS011;61444;59.472;18.306;2023-09-30T12:54:17;3.63;;;1.63;;